x

Shumagin Islands - 85nm South Of Sand Point, Ak (46075) Wave Buoy

12:50 - Sat 20th Dec 2014 All times are UTC.

  • Sig Wave height 8.2ft
  • Peak Period 11s
  • Average Period 7s
  • Wind
    9mph, 11mph gusts
  • Sea Temp 45°f
  • Luft Temp 41°f
  • Sea Pressure 972.9mb

More Historic Weather Station data

Upgrade to MSW Pro to gain access to the past 30 days of data for over 8000 Wavebouys and Weather Stations around the globe.

Join Pro

Comparision Forecast

View Surf forecast
   
Sa 12/20 12:50 8ft 11s 7s 9 11 mph 972.9mb 45f 41f
Fr 12/19 11:50 9ft 10s 8s 9 11 mph 972.9mb 45f 42f
10:50 7ft 10s 6s 13 20 mph 973.1mb 45f 42f
9:50 7ft 10s 7s 18 22 mph 973.4mb 44f 42f
8:50 7ft 11s 8s 13 16 mph 973.5mb 45f 42f
7:50 7ft 10s 7s 11 13 mph 973.4mb 44f 42f
6:50 7ft 11s 7s 11 13 mph 973.4mb 44f 42f
5:50 7.5ft 11s 8s 11 13 mph 973.6mb 43f 42f
4:50 7.5ft 11s 8s 9 11 mph 974mb 44f 42f
3:50 9ft 11s 8s 7 9 mph 974.5mb 44f 42f
2:50 9ft 11s 8s 9 11 mph 975mb 44f 42f
1:50 9.5ft 11s 8s 9 13 mph 975.8mb 44f 42f
12:50 10ft 11s 9s 9 11 mph 976.4mb 44f 42f
11:50 9ft 11s 8s 9 13 mph 977.1mb 44f 42f
10:50 11ft 11s 9s 11 13 mph 977.4mb 44f 42f
9:50 9ft 10s 8s 11 16 mph 978.2mb 44f 42f
8:50 10ft 10s 8s 16 20 mph 978.4mb 44f 42f
7:50 9ft 11s 8s 11 13 mph 979.3mb 44f 42f
6:50 10ft 11s 8s 13 20 mph 980mb 44f 43f
5:50 12ft 10s 8s 16 20 mph 980.9mb 44f 43f
4:50 11.5ft 11s 8s 16 20 mph 981.8mb 44f 43f
3:50 12ft 10s 8s 16 20 mph 982.6mb 44f 42f
2:50 11.5ft 11s 8s 16 18 mph 983.7mb 44f 43f
1:50 12ft 11s 8s 16 20 mph 984.3mb 45f 43f
12:50 12ft 10s 8s 7 11 mph 985.3mb 45f 42f
Do 12/18 11:50 13ft 11s 9s 9 13 mph 986.3mb 45f 42f
10:50 11ft 12s 8s 9 11 mph 987.4mb 44f 42f
9:50 12.5ft 11s 8s 11 13 mph 988.4mb 44f 42f
8:50 12ft 11s 8s 16 18 mph 989.2mb 44f 42f
7:50 13ft 11s 8s 11 16 mph 989.9mb 44f 42f
6:50 12ft 11s 8s 13 22 mph 990.1mb 44f 44f
5:50 13ft 12s 8s 7 9 mph 990.2mb 44f 42f
4:50 13ft 11s 8s 11 16 mph 990.8mb 44f 40f
3:50 14ft 11s 8s 16 20 mph 990.9mb 44f 41f
2:50 14ft 11s 8s 18 22 mph 990.9mb 44f 41f
1:50 15ft 11s 8s 20 25 mph 991mb 44f 40f
12:50 14ft 10s 8s 25 31 mph 990.9mb 44f 41f
11:50 14ft 10s 7s 27 31 mph 990.7mb 44f 40f
10:50 14.5ft 11s 8s 27 34 mph 989.9mb 44f 41f
9:50 15ft 11s 8s 27 34 mph 989.5mb 44f 41f
8:50 17ft 11s 8s 25 29 mph 988.9mb 44f 41f
7:50 14ft 11s 7s 25 31 mph 988.4mb 44f 41f
6:50 15ft 11s 8s 27 31 mph 987.9mb 44f 41f
5:50 15ft 11s 7s 25 31 mph 987.2mb 44f 40f
4:50 14.5ft 11s 7s 27 34 mph 986.5mb 44f 40f
3:50 15ft 11s 7s 29 36 mph 985.6mb 44f 40f
2:50 14.5ft 11s 7s 29 36 mph 984.9mb 44f 40f
1:50 15ft 11s 7s 31 38 mph 983.9mb 44f 41f
12:50 15ft 11s 7s 29 34 mph 983.5mb 44f 40f
Mi 12/17 11:50 13.5ft 9s 6s 31 40 mph 982.8mb 44f 40f
10:50 14.5ft 9s 7s 34 40 mph 982.8mb 44f 39f
9:50 13ft 9s 6s 31 38 mph 982.9mb 44f 39f
8:50 12ft 9s 6s 31 38 mph 983.2mb 44f 39f
7:50 11.5ft 8s 6s 36 47 mph 983.4mb 44f 39f
6:50 10.5ft 7s 6s 34 43 mph 983.3mb 44f 39f
5:50 10ft 7s 6s 31 38 mph 983.3mb 44f 42f
4:50 10ft 6s 5s 29 36 mph 984mb 44f 42f
3:50 9ft 12s 5s 29 36 mph 984.7mb 44f 42f
2:50 9ft 12s 6s 29 36 mph 985.9mb 44f 41f
1:50 8ft 12s 5s 27 36 mph 987.1mb 44f 40f
12:50 9ft 11s 6s 25 29 mph 988mb 44f 41f
11:50 9ft 13s 7s 25 34 mph 988.8mb 44f 40f
10:50 9ft 12s 7s 25 29 mph 989.9mb 44f 40f
9:50 8ft 13s 7s 22 27 mph 990.9mb 44f 41f
8:50 8.5ft 13s 8s 18 25 mph 991.6mb 44f 40f
7:50 8ft 13s 8s 16 22 mph 992mb 44f 40f
6:50 9ft 13s 8s 16 20 mph 992.8mb 44f 40f
5:50 9ft 14s 8s 18 25 mph 993.1mb 44f 40f
4:50 10ft 13s 8s 11 13 mph 993.3mb 44f 40f
3:50 10ft 13s 8s 9 11 mph 993.4mb 44f 40f
2:50 10ft 13s 8s 11 16 mph 993.9mb 44f 41f
1:50 10ft 13s 8s 7 11 mph 993.1mb 44f 40f
12:50 10.5ft 12s 8s 13 16 mph 993.3mb 44f 41f
Di 12/16 11:50 9.5ft 14s 8s 13 18 mph 993.4mb 44f 42f
10:50 10ft 13s 8s 13 18 mph 993.3mb 44f 41f
9:50 10ft 13s 8s 11 16 mph 992.9mb 44f 41f
8:50 9ft 13s 8s 16 18 mph 992.6mb 44f 40f
7:50 10ft 13s 8s 18 22 mph 992.2mb 44f 41f
6:50 9.5ft 13s 8s 18 22 mph 991.4mb 44f 40f
5:50 9.5ft 13s 8s 18 22 mph 990.5mb 44f 40f
4:50 10ft 13s 7s 20 27 mph 989.7mb 44f 39f
3:50 10.5ft 14s 8s 16 18 mph 989.1mb 44f 40f
2:50 10.5ft 12s 8s 9 22 mph 989.3mb 44f 38f
1:50 12ft 12s 8s 18 22 mph 988.9mb 44f 39f
12:50 14ft 14s 8s 25 31 mph 988.6mb 44f 38f
11:50 13.5ft 14s 8s 18 22 mph 988.6mb 44f 41f
10:50 15ft 13s 9s 20 27 mph 988.6mb 44f 42f
9:50 14ft 13s 9s 22 29 mph 988.3mb 44f 41f
8:50 13.5ft 13s 8s 22 29 mph 987.7mb 44f 42f
7:50 14ft 14s 8s 22 29 mph 987.4mb 44f 41f
6:50 14ft 11s 8s 22 27 mph 987mb 44f 42f
5:50 13ft 14s 8s 22 27 mph 986.5mb 44f 41f
4:50 15ft 13s 8s 25 31 mph 985.9mb 44f 41f
3:50 14.5ft 11s 8s 27 31 mph 985.4mb 44f 41f
2:50 15.5ft 12s 8s 27 31 mph 985.1mb 44f 42f